Time;durP1;ratioP1;P1;durP2;ratioP2;P2;SDS_P1;SDS_P2;PMS_P1;PMS_P2;Temp;Humidity;BMP_temperature;BMP_pressure;BME280_temperature;BME280_humidity;BME280_pressure;Samples;Min_cycle;Max_cycle;Signal;HPM_P1;HPM_P2
2022/04/06 00:01:52;;;;;;;;;2.00;2.00;;;;;;;;5050756;28;9977;-77
2022/04/06 00:04:20;;;;;;;;;2.75;1.50;;;;;;;;5060165;28;10078;-77
2022/04/06 00:06:47;;;;;;;;;0.75;0.75;;;;;;;;5055152;28;10123;-78
2022/04/06 00:09:16;;;;;;;;;1.00;1.00;;;;;;;;5057632;28;10159;-77
2022/04/06 00:11:44;;;;;;;;;0.75;0.75;;;;;;;;5055531;28;10050;-78
2022/04/06 00:14:12;;;;;;;;;1.00;1.00;;;;;;;;5049297;28;11471;-77
2022/04/06 00:16:49;;;;;;;;;1.00;1.00;;;;;;;;5058838;28;10198;-76
2022/04/06 00:19:16;;;;;;;;;0.75;0.75;;;;;;;;5057704;28;10125;-76
2022/04/06 00:21:45;;;;;;;;;0.75;0.75;;;;;;;;5048854;28;10144;-77
2022/04/06 00:24:12;;;;;;;;;2.25;0.75;;;;;;;;5051899;28;10995;-77
2022/04/06 00:26:42;;;;;;;;;1.75;1.75;;;;;;;;5053482;28;10104;-77
2022/04/06 00:29:09;;;;;;;;;2.00;0.75;;;;;;;;5046937;28;10304;-77
2022/04/06 00:31:37;;;;;;;;;1.00;1.00;;;;;;;;5052552;28;10262;-78
2022/04/06 00:34:04;;;;;;;;;1.00;1.00;;;;;;;;5056806;28;10145;-78
2022/04/06 00:36:32;;;;;;;;;1.25;1.25;;;;;;;;5057329;28;10143;-78
2022/04/06 00:38:59;;;;;;;;;2.00;0.00;;;;;;;;5053095;28;10234;-77
2022/04/06 00:41:27;;;;;;;;;1.25;1.25;;;;;;;;5046626;28;10258;-78
2022/04/06 00:44:14;;;;;;;;;1.00;1.00;;;;;;;;5050371;28;10327;-78
2022/04/06 00:46:42;;;;;;;;;2.00;0.00;;;;;;;;5057968;28;10228;-78
2022/04/06 00:49:11;;;;;;;;;0.00;0.00;;;;;;;;5058309;28;10321;-78
2022/04/06 00:51:40;;;;;;;;;0.75;0.75;;;;;;;;5054281;28;10174;-78
2022/04/06 00:54:08;;;;;;;;;1.00;1.00;;;;;;;;5050130;28;10313;-77
2022/04/06 00:56:36;;;;;;;;;1.00;1.00;;;;;;;;5050808;28;10962;-78
2022/04/06 00:59:04;;;;;;;;;0.00;0.00;;;;;;;;5047619;28;10240;-78
2022/04/06 01:01:32;;;;;;;;;1.00;1.00;;;;;;;;5055554;28;10197;-77
2022/04/06 01:04:00;;;;;;;;;0.75;0.75;;;;;;;;5056785;28;10254;-78
2022/04/06 01:06:27;;;;;;;;;1.00;1.00;;;;;;;;5056930;28;10261;-77
2022/04/06 01:08:54;;;;;;;;;0.00;0.00;;;;;;;;5055296;28;10158;-78
2022/04/06 01:11:22;;;;;;;;;3.00;2.00;;;;;;;;5057215;28;9994;-77
2022/04/06 01:13:49;;;;;;;;;3.00;1.00;;;;;;;;5050800;28;10180;-77
2022/04/06 01:16:17;;;;;;;;;0.75;0.75;;;;;;;;5046991;28;10204;-76
2022/04/06 01:18:46;;;;;;;;;0.75;0.75;;;;;;;;5059953;28;10256;-77
2022/04/06 01:21:13;;;;;;;;;1.00;1.00;;;;;;;;5051147;28;10220;-77
2022/04/06 01:23:43;;;;;;;;;3.00;1.00;;;;;;;;5052732;28;10320;-77
2022/04/06 01:26:11;;;;;;;;;1.00;1.00;;;;;;;;5054676;28;10354;-77
2022/04/06 01:28:39;;;;;;;;;1.00;1.00;;;;;;;;5060591;28;10237;-77
2022/04/06 01:31:07;;;;;;;;;1.00;1.00;;;;;;;;5051686;28;10103;-77
2022/04/06 01:33:34;;;;;;;;;6.00;0.50;;;;;;;;5057432;28;10148;-78
2022/04/06 01:36:02;;;;;;;;;1.00;1.00;;;;;;;;5059542;28;10308;-78
2022/04/06 01:38:29;;;;;;;;;1.00;1.00;;;;;;;;5054417;28;10257;-78
2022/04/06 01:40:59;;;;;;;;;2.50;2.00;;;;;;;;5056414;28;10249;-77
2022/04/06 01:43:26;;;;;;;;;1.50;1.50;;;;;;;;5052819;28;10246;-77
2022/04/06 01:45:53;;;;;;;;;2.00;2.00;;;;;;;;5056378;28;10394;-77
2022/04/06 01:48:21;;;;;;;;;2.50;2.50;;;;;;;;5055694;28;10474;-77
2022/04/06 01:53:35;;;;;;;;;3.50;3.50;;;;;;;;5035536;28;10753;-76
2022/04/06 01:56:04;;;;;;;;;7.00;4.75;;;;;;;;5058755;28;10701;-76
2022/04/06 01:58:32;;;;;;;;;2.50;2.50;;;;;;;;5060154;28;11078;-76
2022/04/06 02:00:59;;;;;;;;;1.50;1.50;;;;;;;;5058016;28;11039;-77
2022/04/06 02:03:26;;;;;;;;;0.75;0.75;;;;;;;;5055369;28;11081;-77
2022/04/06 02:05:54;;;;;;;;;3.00;1.50;;;;;;;;5056738;28;10760;-77
2022/04/06 02:08:21;;;;;;;;;0.50;0.50;;;;;;;;5059930;28;10853;-77
2022/04/06 02:10:49;;;;;;;;;1.00;1.00;;;;;;;;5061384;28;10628;-77
2022/04/06 02:13:18;;;;;;;;;1.00;1.00;;;;;;;;5093158;28;10350;-77
2022/04/06 02:15:47;;;;;;;;;2.50;1.75;;;;;;;;5060946;28;10382;-75
2022/04/06 02:18:15;;;;;;;;;1.50;1.50;;;;;;;;5060864;28;10507;-77
2022/04/06 02:20:42;;;;;;;;;1.50;1.50;;;;;;;;5091355;28;10557;-78
2022/04/06 02:23:10;;;;;;;;;1.50;0.25;;;;;;;;5055728;28;10411;-77
2022/04/06 02:25:38;;;;;;;;;1.00;1.00;;;;;;;;5050269;28;10394;-76
2022/04/06 02:28:05;;;;;;;;;2.00;1.00;;;;;;;;5059322;28;10590;-76
2022/04/06 02:30:34;;;;;;;;;3.00;1.00;;;;;;;;5051958;28;10454;-77
2022/04/06 02:33:02;;;;;;;;;0.75;0.75;;;;;;;;5055287;28;10538;-77
2022/04/06 02:35:29;;;;;;;;;1.25;0.00;;;;;;;;5050240;28;10595;-77
2022/04/06 02:37:57;;;;;;;;;1.00;1.00;;;;;;;;5060695;28;10404;-76
2022/04/06 02:40:24;;;;;;;;;1.25;1.25;;;;;;;;5062491;28;10551;-77
2022/04/06 02:42:51;;;;;;;;;0.75;0.75;;;;;;;;5059989;28;10657;-77
2022/04/06 02:45:18;;;;;;;;;1.00;1.00;;;;;;;;5062830;28;10723;-77
2022/04/06 02:47:47;;;;;;;;;0.00;0.00;;;;;;;;5070235;28;10675;-77
2022/04/06 02:50:14;;;;;;;;;2.25;1.00;;;;;;;;5059428;28;10549;-77
2022/04/06 02:52:42;;;;;;;;;2.00;2.00;;;;;;;;5045864;28;10637;-77
2022/04/06 02:55:12;;;;;;;;;2.00;2.00;;;;;;;;5056422;28;10566;-77
2022/04/06 02:57:41;;;;;;;;;2.50;1.00;;;;;;;;5055111;28;10599;-77
2022/04/06 03:00:10;;;;;;;;;2.00;0.50;;;;;;;;5055905;28;10543;-77
2022/04/06 03:02:37;;;;;;;;;1.00;1.00;;;;;;;;5054808;28;10551;-77
2022/04/06 03:05:07;;;;;;;;;1.00;1.00;;;;;;;;5059112;28;10532;-77
2022/04/06 03:07:34;;;;;;;;;2.00;1.00;;;;;;;;5061865;28;10550;-78
2022/04/06 03:10:02;;;;;;;;;0.00;0.00;;;;;;;;5059673;28;10666;-78
2022/04/06 03:12:30;;;;;;;;;1.25;1.25;;;;;;;;5058129;28;10583;-77
2022/04/06 03:14:57;;;;;;;;;2.00;1.00;;;;;;;;5060058;28;10698;-78
2022/04/06 03:17:24;;;;;;;;;1.00;1.00;;;;;;;;5056890;28;10792;-77
2022/04/06 03:19:52;;;;;;;;;1.25;1.25;;;;;;;;5060668;28;10609;-78
2022/04/06 03:22:21;;;;;;;;;0.50;0.50;;;;;;;;5056636;28;10839;-77
2022/04/06 03:24:48;;;;;;;;;0.75;0.75;;;;;;;;5058657;28;10657;-77
2022/04/06 03:27:16;;;;;;;;;0.50;0.50;;;;;;;;5057662;28;10666;-76
2022/04/06 03:29:43;;;;;;;;;1.50;1.00;;;;;;;;5055993;28;10537;-77
2022/04/06 03:32:11;;;;;;;;;1.00;1.00;;;;;;;;5059573;28;10599;-77
2022/04/06 03:34:39;;;;;;;;;1.00;1.00;;;;;;;;5049745;28;10535;-77
2022/04/06 03:37:06;;;;;;;;;0.00;0.00;;;;;;;;5054057;28;10526;-77
2022/04/06 03:39:35;;;;;;;;;2.50;1.25;;;;;;;;5044309;28;10523;-78
2022/04/06 03:42:03;;;;;;;;;0.00;0.00;;;;;;;;5055963;28;10557;-77
2022/04/06 03:44:30;;;;;;;;;0.00;0.00;;;;;;;;5060470;28;10677;-77
2022/04/06 03:46:57;;;;;;;;;1.00;1.00;;;;;;;;5050487;28;10528;-76
2022/04/06 03:49:25;;;;;;;;;0.00;0.00;;;;;;;;5052962;28;10590;-77
2022/04/06 03:51:52;;;;;;;;;0.00;0.00;;;;;;;;5053394;28;10476;-77
2022/04/06 03:54:19;;;;;;;;;0.75;0.75;;;;;;;;5051290;28;10526;-77
2022/04/06 03:56:48;;;;;;;;;0.00;0.00;;;;;;;;5057953;28;10658;-77
2022/04/06 03:59:16;;;;;;;;;0.75;0.75;;;;;;;;5055244;28;10727;-78
2022/04/06 04:01:43;;;;;;;;;2.00;0.00;;;;;;;;5057179;28;10728;-78
2022/04/06 04:04:10;;;;;;;;;0.00;0.00;;;;;;;;5050711;28;10574;-76
2022/04/06 04:06:38;;;;;;;;;0.00;0.00;;;;;;;;5057704;28;10498;-76
2022/04/06 04:09:05;;;;;;;;;2.25;0.00;;;;;;;;5057491;28;10697;-78
2022/04/06 04:11:33;;;;;;;;;0.00;0.00;;;;;;;;5049084;28;10513;-78
2022/04/06 04:14:02;;;;;;;;;1.50;1.00;;;;;;;;5056168;28;10636;-77
2022/04/06 04:16:29;;;;;;;;;2.25;1.00;;;;;;;;5092950;28;10564;-77
2022/04/06 04:18:56;;;;;;;;;0.00;0.00;;;;;;;;5057227;28;10792;-78
2022/04/06 04:21:33;;;;;;;;;2.00;1.00;;;;;;;;5053410;28;10672;-77
2022/04/06 04:24:01;;;;;;;;;2.00;0.25;;;;;;;;5057280;28;10628;-76
2022/04/06 04:26:28;;;;;;;;;1.00;1.00;;;;;;;;5053340;28;11429;-76
2022/04/06 04:28:55;;;;;;;;;1.00;1.00;;;;;;;;5057139;28;10787;-76
2022/04/06 04:31:25;;;;;;;;;0.00;0.00;;;;;;;;5055546;28;10518;-76
2022/04/06 04:33:52;;;;;;;;;0.00;0.00;;;;;;;;5058206;28;10622;-76
2022/04/06 04:36:19;;;;;;;;;1.00;1.00;;;;;;;;5055146;28;10464;-76
2022/04/06 04:38:47;;;;;;;;;0.00;0.00;;;;;;;;5056208;28;10605;-75
2022/04/06 04:41:14;;;;;;;;;0.25;0.25;;;;;;;;5053721;28;10541;-76
2022/04/06 04:43:41;;;;;;;;;0.00;0.00;;;;;;;;5058908;28;10533;-75
2022/04/06 04:46:09;;;;;;;;;1.00;1.00;;;;;;;;5060475;28;10505;-77
2022/04/06 04:48:38;;;;;;;;;0.00;0.00;;;;;;;;5054340;28;10622;-78
2022/04/06 04:51:06;;;;;;;;;0.00;0.00;;;;;;;;5062172;28;10607;-76
2022/04/06 04:53:33;;;;;;;;;0.00;0.00;;;;;;;;5058245;28;10571;-77
2022/04/06 04:56:01;;;;;;;;;0.50;0.50;;;;;;;;5056814;28;11354;-76
2022/04/06 04:58:28;;;;;;;;;0.00;0.00;;;;;;;;5058444;28;10788;-75
2022/04/06 05:00:56;;;;;;;;;0.25;0.25;;;;;;;;5062556;28;10464;-76
2022/04/06 05:03:23;;;;;;;;;1.00;0.00;;;;;;;;5061528;28;10535;-76
2022/04/06 05:05:53;;;;;;;;;0.75;0.75;;;;;;;;5060422;28;10645;-75
2022/04/06 05:08:21;;;;;;;;;0.00;0.00;;;;;;;;5061950;28;10608;-75
2022/04/06 05:10:48;;;;;;;;;2.00;0.75;;;;;;;;5059459;28;10561;-76
2022/04/06 05:13:17;;;;;;;;;2.00;0.00;;;;;;;;5062909;28;10606;-75
2022/04/06 05:15:45;;;;;;;;;0.00;0.00;;;;;;;;5061120;28;10541;-75
2022/04/06 05:18:12;;;;;;;;;0.00;0.00;;;;;;;;5059890;28;10507;-75
2022/04/06 05:20:39;;;;;;;;;1.50;0.00;;;;;;;;5061003;28;10662;-75
2022/04/06 05:23:09;;;;;;;;;1.00;0.00;;;;;;;;5057446;28;11493;-76
2022/04/06 05:25:37;;;;;;;;;0.75;0.75;;;;;;;;5054198;28;10516;-81
2022/04/06 05:28:05;;;;;;;;;0.00;0.00;;;;;;;;5057709;28;10544;-77
2022/04/06 05:30:33;;;;;;;;;4.50;0.25;;;;;;;;5060475;28;10318;-84
2022/04/06 05:33:01;;;;;;;;;0.00;0.00;;;;;;;;5059836;28;10604;-84
2022/04/06 05:35:29;;;;;;;;;0.50;0.50;;;;;;;;5060586;28;10623;-83
2022/04/06 05:37:57;;;;;;;;;0.00;0.00;;;;;;;;5054531;28;10462;-85
2022/04/06 05:40:27;;;;;;;;;0.25;0.25;;;;;;;;5054572;28;10550;-86
2022/04/06 05:42:54;;;;;;;;;1.00;1.00;;;;;;;;5056787;28;10458;-82
2022/04/06 05:45:22;;;;;;;;;0.00;0.00;;;;;;;;5063494;28;10550;-83
2022/04/06 05:47:50;;;;;;;;;2.00;1.00;;;;;;;;5064892;28;10565;-88
2022/04/06 05:50:17;;;;;;;;;1.75;0.00;;;;;;;;5064441;28;11289;-83
2022/04/06 05:52:44;;;;;;;;;0.00;0.00;;;;;;;;5066658;28;10600;-89
2022/04/06 05:55:12;;;;;;;;;1.00;1.00;;;;;;;;5061755;28;10543;-82
2022/04/06 05:57:41;;;;;;;;;0.00;0.00;;;;;;;;5057496;28;10566;-81
2022/04/06 06:00:09;;;;;;;;;0.00;0.00;;;;;;;;5066232;28;10537;-84
2022/04/06 06:02:37;;;;;;;;;0.00;0.00;;;;;;;;5063062;28;10526;-87
2022/04/06 06:05:05;;;;;;;;;2.00;1.00;;;;;;;;5066221;28;10629;-86
2022/04/06 06:07:32;;;;;;;;;0.00;0.00;;;;;;;;5064862;28;10590;-78
2022/04/06 06:10:02;;;;;;;;;0.00;0.00;;;;;;;;5060617;28;11238;-76
2022/04/06 06:12:30;;;;;;;;;1.00;0.00;;;;;;;;5063976;28;10577;-74
2022/04/06 06:15:00;;;;;;;;;0.00;0.00;;;;;;;;5065190;28;10411;-77
2022/04/06 06:17:28;;;;;;;;;0.50;0.50;;;;;;;;5064273;28;10518;-77
2022/04/06 06:19:55;;;;;;;;;0.25;0.25;;;;;;;;5051757;28;10600;-76
2022/04/06 06:22:23;;;;;;;;;0.00;0.00;;;;;;;;5059152;28;10566;-78
2022/04/06 06:24:50;;;;;;;;;1.00;0.00;;;;;;;;5057574;28;10479;-78
2022/04/06 06:27:19;;;;;;;;;0.00;0.00;;;;;;;;5063193;28;10490;-76
2022/04/06 06:29:48;;;;;;;;;0.00;0.00;;;;;;;;5054989;28;10472;-75
2022/04/06 06:32:17;;;;;;;;;0.00;0.00;;;;;;;;5059737;28;10412;-77
2022/04/06 06:34:44;;;;;;;;;0.00;0.00;;;;;;;;5058819;28;10493;-78
2022/04/06 06:37:12;;;;;;;;;0.00;0.00;;;;;;;;5054900;28;10478;-78
2022/04/06 06:39:39;;;;;;;;;0.00;0.00;;;;;;;;5059925;28;10469;-76
2022/04/06 06:42:08;;;;;;;;;0.00;0.00;;;;;;;;5060223;28;10309;-77
2022/04/06 06:44:35;;;;;;;;;0.00;0.00;;;;;;;;5057501;28;10404;-79
2022/04/06 06:47:02;;;;;;;;;2.00;0.25;;;;;;;;5056851;28;10452;-78
2022/04/06 06:49:31;;;;;;;;;0.00;0.00;;;;;;;;5061616;28;10382;-76
2022/04/06 06:51:59;;;;;;;;;0.00;0.00;;;;;;;;5053722;28;10316;-78
2022/04/06 06:54:26;;;;;;;;;2.25;0.25;;;;;;;;5058881;28;10563;-77
2022/04/06 06:56:53;;;;;;;;;1.00;1.00;;;;;;;;5058603;28;10512;-83
2022/04/06 06:59:20;;;;;;;;;1.50;1.50;;;;;;;;5057885;28;11164;-84
2022/04/06 07:01:48;;;;;;;;;0.00;0.00;;;;;;;;5040677;28;10323;-78
2022/04/06 07:04:15;;;;;;;;;0.00;0.00;;;;;;;;5033587;28;10475;-79
2022/04/06 07:06:44;;;;;;;;;0.00;0.00;;;;;;;;5037184;28;10324;-83
2022/04/06 07:09:11;;;;;;;;;0.50;0.50;;;;;;;;5038957;28;10323;-84
2022/04/06 07:11:39;;;;;;;;;0.00;0.00;;;;;;;;5072558;28;10240;-77
2022/04/06 07:14:06;;;;;;;;;1.00;1.00;;;;;;;;5037567;28;11097;-74
2022/04/06 07:16:33;;;;;;;;;1.00;1.00;;;;;;;;5030070;28;10333;-76
2022/04/06 07:19:01;;;;;;;;;0.00;0.00;;;;;;;;5038979;28;10460;-77
2022/04/06 07:21:28;;;;;;;;;0.00;0.00;;;;;;;;5030170;28;10464;-79
2022/04/06 07:23:58;;;;;;;;;0.00;0.00;;;;;;;;5038675;28;10333;-79
2022/04/06 07:26:25;;;;;;;;;0.00;0.00;;;;;;;;5039830;28;10209;-78
2022/04/06 07:28:53;;;;;;;;;0.00;0.00;;;;;;;;5067654;28;10193;-80
2022/04/06 07:31:20;;;;;;;;;0.00;0.00;;;;;;;;5064972;28;10176;-78
2022/04/06 07:33:48;;;;;;;;;0.00;0.00;;;;;;;;5030806;28;10192;-82
2022/04/06 07:36:17;;;;;;;;;0.00;0.00;;;;;;;;5043259;28;10175;-80
2022/04/06 07:38:45;;;;;;;;;0.00;0.00;;;;;;;;5039508;28;11111;-83
2022/04/06 07:41:13;;;;;;;;;0.25;0.25;;;;;;;;5035993;28;10186;-77
2022/04/06 07:43:41;;;;;;;;;1.00;1.00;;;;;;;;5040159;28;10112;-77
2022/04/06 07:46:08;;;;;;;;;1.50;0.75;;;;;;;;5039346;28;10164;-75
2022/04/06 07:48:35;;;;;;;;;0.75;0.75;;;;;;;;5040771;28;10946;-76
2022/04/06 07:51:03;;;;;;;;;1.00;1.00;;;;;;;;5037204;28;10040;-75
2022/04/06 07:53:30;;;;;;;;;0.75;0.75;;;;;;;;5038605;28;10225;-76
2022/04/06 07:55:57;;;;;;;;;0.00;0.00;;;;;;;;5031297;28;10013;-79
2022/04/06 07:58:26;;;;;;;;;1.75;0.00;;;;;;;;5042573;28;10098;-78
2022/04/06 08:00:53;;;;;;;;;2.00;0.00;;;;;;;;5040288;28;10775;-75
2022/04/06 08:03:21;;;;;;;;;0.00;0.00;;;;;;;;5059465;28;9965;-76
2022/04/06 08:05:50;;;;;;;;;0.00;0.00;;;;;;;;5068060;28;9929;-77
2022/04/06 08:08:17;;;;;;;;;2.00;0.00;;;;;;;;5061767;28;10176;-77
2022/04/06 08:10:44;;;;;;;;;0.00;0.00;;;;;;;;5061094;28;10543;-77
2022/04/06 08:13:12;;;;;;;;;0.50;0.00;;;;;;;;5064408;28;9888;-76
2022/04/06 08:15:41;;;;;;;;;0.00;0.00;;;;;;;;5059400;28;9954;-76
2022/04/06 08:18:09;;;;;;;;;0.00;0.00;;;;;;;;5053010;28;9960;-76
2022/04/06 08:20:36;;;;;;;;;1.00;1.00;;;;;;;;5054802;28;9907;-76
2022/04/06 08:23:03;;;;;;;;;0.25;0.25;;;;;;;;5052313;28;10070;-75
2022/04/06 08:25:32;;;;;;;;;3.25;1.00;;;;;;;;5051029;28;10069;-76
2022/04/06 08:27:59;;;;;;;;;0.00;0.00;;;;;;;;5063582;28;9903;-75
2022/04/06 08:30:27;;;;;;;;;0.00;0.00;;;;;;;;5046073;28;9760;-77
2022/04/06 08:33:40;;;;;;;;;0.00;0.00;;;;;;;;5053098;28;9947;-78
2022/04/06 08:36:09;;;;;;;;;2.50;0.50;;;;;;;;5047030;28;9808;-75
2022/04/06 08:38:36;;;;;;;;;0.00;0.00;;;;;;;;5057000;28;9871;-78
2022/04/06 08:41:04;;;;;;;;;0.00;0.00;;;;;;;;5056347;28;9889;-77
2022/04/06 08:43:31;;;;;;;;;0.00;0.00;;;;;;;;5049573;28;9957;-78
2022/04/06 08:45:58;;;;;;;;;0.00;0.00;;;;;;;;5061071;28;9872;-79
2022/04/06 08:48:29;;;;;;;;;1.00;1.00;;;;;;;;5053995;28;9917;-80
2022/04/06 08:51:00;;;;;;;;;0.00;0.00;;;;;;;;5025919;28;11114;-78
2022/04/06 08:53:28;;;;;;;;;0.00;0.00;;;;;;;;5053237;28;9872;-77
2022/04/06 08:55:56;;;;;;;;;0.00;0.00;;;;;;;;5073805;28;9848;-76
2022/04/06 08:58:23;;;;;;;;;0.00;0.00;;;;;;;;5051741;28;9814;-79
2022/04/06 09:00:50;;;;;;;;;1.50;1.00;;;;;;;;5052963;28;10621;-78
2022/04/06 09:03:18;;;;;;;;;0.00;0.00;;;;;;;;5047984;28;9882;-80
2022/04/06 09:05:45;;;;;;;;;0.00;0.00;;;;;;;;5053739;28;9930;-80
2022/04/06 09:08:14;;;;;;;;;2.00;0.00;;;;;;;;5058338;28;10019;-77
2022/04/06 09:10:42;;;;;;;;;1.00;0.00;;;;;;;;5048888;28;9915;-77
2022/04/06 09:13:14;;;;;;;;;0.75;0.75;;;;;;;;5058376;28;9768;-78
2022/04/06 09:15:42;;;;;;;;;0.00;0.00;;;;;;;;5050243;28;9902;-78
2022/04/06 09:18:10;;;;;;;;;0.00;0.00;;;;;;;;5062496;28;9830;-78
2022/04/06 09:20:37;;;;;;;;;0.00;0.00;;;;;;;;5058037;28;9721;-77
2022/04/06 09:23:06;;;;;;;;;0.25;0.25;;;;;;;;5058595;28;9932;-85
2022/04/06 09:25:39;;;;;;;;;0.00;0.00;;;;;;;;5041466;28;9732;-78
2022/04/06 09:28:11;;;;;;;;;1.00;0.00;;;;;;;;5058065;28;9716;-82
2022/04/06 09:30:46;;;;;;;;;0.00;0.00;;;;;;;;5057261;28;9879;-78
2022/04/06 09:33:15;;;;;;;;;0.00;0.00;;;;;;;;5045504;28;9739;-79
2022/04/06 09:35:43;;;;;;;;;0.00;0.00;;;;;;;;5038677;28;9739;-77
2022/04/06 09:38:14;;;;;;;;;0.00;0.00;;;;;;;;5047847;28;9856;-79
2022/04/06 09:40:44;;;;;;;;;1.50;0.00;;;;;;;;5045119;28;9790;-80
2022/04/06 09:43:25;;;;;;;;;0.00;0.00;;;;;;;;5036478;28;10486;-80
2022/04/06 09:48:52;;;;;;;;;1.25;1.00;;;;;;;;5046050;28;9839;-79
2022/04/06 09:51:22;;;;;;;;;0.00;0.00;;;;;;;;5031053;28;9772;-79
2022/04/06 09:53:51;;;;;;;;;0.00;0.00;;;;;;;;5038372;28;9774;-78
2022/04/06 09:56:20;;;;;;;;;0.00;0.00;;;;;;;;5042778;28;9805;-82
2022/04/06 09:58:49;;;;;;;;;0.00;0.00;;;;;;;;5033998;28;9833;-82
2022/04/06 10:01:16;;;;;;;;;0.00;0.00;;;;;;;;5033029;28;9497;-79
2022/04/06 10:03:48;;;;;;;;;0.00;0.00;;;;;;;;5027232;28;9815;-78
2022/04/06 10:06:15;;;;;;;;;0.00;0.00;;;;;;;;5034789;28;9667;-79
2022/04/06 10:08:44;;;;;;;;;0.00;0.00;;;;;;;;5045194;28;9733;-81
2022/04/06 10:11:12;;;;;;;;;0.00;0.00;;;;;;;;5042539;28;9416;-81
2022/04/06 10:13:41;;;;;;;;;0.00;0.00;;;;;;;;5035420;28;9478;-86
2022/04/06 10:16:11;;;;;;;;;0.00;0.00;;;;;;;;5042315;28;9585;-82
2022/04/06 10:18:39;;;;;;;;;1.00;1.00;;;;;;;;5032473;28;9499;-83
2022/04/06 10:21:12;;;;;;;;;0.00;0.00;;;;;;;;5037363;28;9557;-82
2022/04/06 10:23:49;;;;;;;;;0.25;0.25;;;;;;;;5045046;28;10295;-82
2022/04/06 10:26:28;;;;;;;;;2.00;1.00;;;;;;;;5035549;28;9414;-78
2022/04/06 10:28:56;;;;;;;;;0.75;0.75;;;;;;;;5038867;28;9420;-82
2022/04/06 10:31:29;;;;;;;;;0.00;0.00;;;;;;;;5034350;28;9526;-79
2022/04/06 10:34:21;;;;;;;;;0.75;0.75;;;;;;;;5031296;28;9512;-82
2022/04/06 10:37:06;;;;;;;;;1.33;1.33;;;;;;;;5028685;28;9432;-78
2022/04/06 10:39:34;;;;;;;;;1.00;1.00;;;;;;;;5039590;28;9498;-81
2022/04/06 10:42:15;;;;;;;;;1.00;1.00;;;;;;;;5037400;28;9407;-80
2022/04/06 10:44:44;;;;;;;;;0.67;0.67;;;;;;;;5031602;28;9302;-84
2022/04/06 10:47:13;;;;;;;;;1.33;0.00;;;;;;;;5037937;28;9110;-83
2022/04/06 10:49:44;;;;;;;;;2.00;0.00;;;;;;;;5046881;28;9202;-76
2022/04/06 10:52:20;;;;;;;;;0.00;0.00;;;;;;;;5036365;28;9346;-79
2022/04/06 10:54:48;;;;;;;;;0.00;0.00;;;;;;;;5028189;28;9132;-80
2022/04/06 10:57:15;;;;;;;;;0.67;0.00;;;;;;;;5027583;28;9084;-80
2022/04/06 10:59:44;;;;;;;;;0.33;0.00;;;;;;;;5033518;28;9357;-81
2022/04/06 11:02:33;;;;;;;;;1.00;1.00;;;;;;;;5045712;28;9356;-83
2022/04/06 11:05:02;;;;;;;;;0.00;0.00;;;;;;;;5038881;28;9348;-83
2022/04/06 11:10:30;;;;;;;;;0.67;0.67;;;;;;;;5046116;28;9341;-82
2022/04/06 11:13:03;;;;;;;;;1.00;1.00;;;;;;;;5043202;28;9311;-84
2022/04/06 11:15:38;;;;;;;;;0.00;0.00;;;;;;;;5044920;28;9320;-82
2022/04/06 11:18:07;;;;;;;;;0.33;0.33;;;;;;;;5040131;28;9042;-83
2022/04/06 11:20:36;;;;;;;;;1.00;1.00;;;;;;;;5044079;28;9987;-83
2022/04/06 11:23:07;;;;;;;;;1.00;1.00;;;;;;;;5043149;28;9298;-82
2022/04/06 11:25:34;;;;;;;;;1.00;1.00;;;;;;;;5032754;28;9402;-80
2022/04/06 11:28:11;;;;;;;;;1.67;1.00;;;;;;;;5039628;28;9303;-85
2022/04/06 11:30:44;;;;;;;;;0.67;0.67;;;;;;;;5045033;28;9292;-83
2022/04/06 11:33:11;;;;;;;;;1.67;1.67;;;;;;;;5037909;28;9275;-83
2022/04/06 11:35:42;;;;;;;;;1.00;1.00;;;;;;;;5044163;28;9267;-81
2022/04/06 11:38:09;;;;;;;;;1.00;1.00;;;;;;;;5039950;28;9290;-80
2022/04/06 11:40:39;;;;;;;;;0.67;0.67;;;;;;;;5038448;28;9383;-83
2022/04/06 11:43:06;;;;;;;;;1.00;1.00;;;;;;;;5040377;28;9373;-84
2022/04/06 11:45:36;;;;;;;;;1.00;1.00;;;;;;;;5043284;28;9402;-80
2022/04/06 11:48:08;;;;;;;;;0.00;0.00;;;;;;;;5043606;28;9448;-82
2022/04/06 11:50:36;;;;;;;;;2.00;2.00;;;;;;;;5043614;28;9385;-84
2022/04/06 11:53:05;;;;;;;;;0.67;0.67;;;;;;;;5025016;28;9394;-84
2022/04/06 11:55:42;;;;;;;;;1.00;1.00;;;;;;;;5042928;28;9235;-83
2022/04/06 11:58:09;;;;;;;;;2.00;2.00;;;;;;;;5045755;28;9126;-84
2022/04/06 12:00:37;;;;;;;;;1.00;1.00;;;;;;;;5042168;28;9119;-81
2022/04/06 12:03:06;;;;;;;;;0.00;0.00;;;;;;;;5045104;28;8980;-83
2022/04/06 12:05:34;;;;;;;;;2.00;2.00;;;;;;;;5042931;28;8900;-84
2022/04/06 12:08:10;;;;;;;;;2.00;2.00;;;;;;;;5042855;28;8907;-85
2022/04/06 12:10:37;;;;;;;;;1.75;1.75;;;;;;;;5057880;28;8963;-80
2022/04/06 12:13:05;;;;;;;;;1.25;1.25;;;;;;;;5043392;28;8865;-86
2022/04/06 12:15:33;;;;;;;;;0.00;0.00;;;;;;;;5042318;28;9002;-83
2022/04/06 12:18:01;;;;;;;;;1.00;1.00;;;;;;;;5043314;28;8841;-83
2022/04/06 12:20:30;;;;;;;;;1.00;1.00;;;;;;;;5077568;28;8904;-85
2022/04/06 12:23:01;;;;;;;;;1.00;1.00;;;;;;;;5034188;28;8962;-83
2022/04/06 12:25:30;;;;;;;;;0.25;0.25;;;;;;;;5046411;28;8899;-87
2022/04/06 12:28:17;;;;;;;;;1.00;1.00;;;;;;;;5043461;28;9000;-85
2022/04/06 12:30:55;;;;;;;;;1.75;1.50;;;;;;;;5041220;28;8829;-84
2022/04/06 12:33:40;;;;;;;;;1.00;1.00;;;;;;;;5036663;28;8892;-83
2022/04/06 12:36:15;;;;;;;;;1.00;1.00;;;;;;;;5041849;28;9003;-82
2022/04/06 12:38:56;;;;;;;;;1.00;1.00;;;;;;;;5039383;28;8974;-83
2022/04/06 12:41:25;;;;;;;;;3.25;2.00;;;;;;;;5041590;28;8967;-83
2022/04/06 12:43:53;;;;;;;;;1.75;1.00;;;;;;;;5042868;28;8885;-83
2022/04/06 12:46:40;;;;;;;;;1.00;1.00;;;;;;;;5043202;28;8890;-83
2022/04/06 12:49:21;;;;;;;;;2.00;2.00;;;;;;;;5042729;28;8904;-83
2022/04/06 12:52:03;;;;;;;;;1.00;1.00;;;;;;;;5041745;28;8930;-82
2022/04/06 12:54:31;;;;;;;;;1.75;1.00;;;;;;;;5045094;28;8862;-82
2022/04/06 12:57:10;;;;;;;;;1.00;1.00;;;;;;;;5040191;28;8877;-84
2022/04/06 12:59:43;;;;;;;;;1.25;0.00;;;;;;;;5041218;28;8857;-85
2022/04/06 13:02:30;;;;;;;;;3.00;3.00;;;;;;;;5032022;28;8843;-82
2022/04/06 13:05:00;;;;;;;;;1.33;1.33;;;;;;;;5036062;28;8971;-85
2022/04/06 13:07:29;;;;;;;;;1.00;1.00;;;;;;;;5042225;28;9056;-82
2022/04/06 13:09:58;;;;;;;;;1.00;1.00;;;;;;;;5037239;28;9054;-85
2022/04/06 13:12:27;;;;;;;;;1.00;1.00;;;;;;;;5037835;28;8942;-83
2022/04/06 13:14:55;;;;;;;;;1.00;1.00;;;;;;;;5043245;28;9059;-81
2022/04/06 13:17:23;;;;;;;;;1.50;1.25;;;;;;;;5037647;28;9155;-83
2022/04/06 13:19:51;;;;;;;;;2.00;2.00;;;;;;;;5037458;28;8846;-80
2022/04/06 13:22:19;;;;;;;;;0.25;0.25;;;;;;;;5028021;28;9005;-82
2022/04/06 13:24:47;;;;;;;;;2.00;2.00;;;;;;;;5036091;28;8869;-80
2022/04/06 13:27:15;;;;;;;;;1.50;1.50;;;;;;;;5035497;28;8891;-78
2022/04/06 13:29:43;;;;;;;;;2.00;2.00;;;;;;;;5038264;28;8881;-84
2022/04/06 13:32:11;;;;;;;;;1.00;1.00;;;;;;;;5040656;28;8810;-82
2022/04/06 13:34:39;;;;;;;;;1.75;1.75;;;;;;;;5039894;28;8888;-86
2022/04/06 13:37:07;;;;;;;;;1.00;1.00;;;;;;;;5027675;28;9662;-83
2022/04/06 13:39:34;;;;;;;;;2.00;2.00;;;;;;;;5030688;28;8880;-85
2022/04/06 13:42:05;;;;;;;;;1.75;1.75;;;;;;;;5039101;28;8865;-82
2022/04/06 13:44:34;;;;;;;;;1.00;1.00;;;;;;;;5031892;28;8892;-85
2022/04/06 13:47:03;;;;;;;;;2.00;2.00;;;;;;;;5043573;28;8959;-86
2022/04/06 13:49:30;;;;;;;;;2.00;2.00;;;;;;;;5031075;28;8905;-85
2022/04/06 13:52:00;;;;;;;;;1.00;1.00;;;;;;;;5041977;28;8883;-80
2022/04/06 13:54:27;;;;;;;;;2.00;2.00;;;;;;;;5044459;28;8869;-81
2022/04/06 13:56:55;;;;;;;;;0.25;0.00;;;;;;;;5044826;28;8875;-81
2022/04/06 13:59:24;;;;;;;;;2.33;1.00;;;;;;;;5033610;28;8860;-82
2022/04/06 14:01:52;;;;;;;;;1.00;1.00;;;;;;;;5029597;28;9148;-82
2022/04/06 14:04:19;;;;;;;;;4.00;3.00;;;;;;;;5037301;28;8959;-82
2022/04/06 14:06:47;;;;;;;;;1.67;1.00;;;;;;;;5036944;28;9882;-83
2022/04/06 14:09:15;;;;;;;;;2.00;2.00;;;;;;;;5044081;28;9180;-83
2022/04/06 14:11:44;;;;;;;;;2.00;2.00;;;;;;;;5036211;28;9029;-82
2022/04/06 14:14:12;;;;;;;;;1.00;1.00;;;;;;;;5041385;28;8960;-84
2022/04/06 14:16:41;;;;;;;;;1.00;1.00;;;;;;;;5042794;28;9025;-83
2022/04/06 14:19:09;;;;;;;;;3.00;3.00;;;;;;;;5038456;28;8986;-83
2022/04/06 14:21:37;;;;;;;;;2.00;2.00;;;;;;;;5046840;28;9049;-84
2022/04/06 14:24:06;;;;;;;;;1.67;1.67;;;;;;;;5043417;28;9169;-83
2022/04/06 14:26:34;;;;;;;;;2.00;2.00;;;;;;;;5045101;28;8961;-84
2022/04/06 14:29:01;;;;;;;;;1.00;1.00;;;;;;;;5044126;28;9118;-84
2022/04/06 14:31:30;;;;;;;;;2.00;2.00;;;;;;;;5060637;28;8937;-83
2022/04/06 14:33:59;;;;;;;;;2.00;0.33;;;;;;;;5076436;28;9112;-84
2022/04/06 14:36:26;;;;;;;;;2.00;2.00;;;;;;;;5067264;28;9199;-84
2022/04/06 14:38:53;;;;;;;;;1.67;1.67;;;;;;;;5054447;28;9107;-84
2022/04/06 14:41:21;;;;;;;;;1.00;1.00;;;;;;;;5085008;28;9061;-85
2022/04/06 14:43:49;;;;;;;;;1.00;1.00;;;;;;;;5063050;28;9844;-84
2022/04/06 14:46:17;;;;;;;;;2.00;1.00;;;;;;;;5065335;28;9029;-81
2022/04/06 14:48:44;;;;;;;;;2.00;2.00;;;;;;;;5064796;28;9608;-83
2022/04/06 14:51:14;;;;;;;;;3.00;2.00;;;;;;;;5081115;28;9012;-85
2022/04/06 14:53:42;;;;;;;;;0.00;0.00;;;;;;;;5070610;28;9132;-87
2022/04/06 14:56:09;;;;;;;;;2.00;0.75;;;;;;;;5080531;28;9783;-86
2022/04/06 14:58:36;;;;;;;;;0.50;0.50;;;;;;;;5069035;28;8879;-81
2022/04/06 15:01:04;;;;;;;;;1.00;1.00;;;;;;;;5056019;28;8867;-78
2022/04/06 15:03:31;;;;;;;;;2.00;1.00;;;;;;;;5061130;28;8976;-79
2022/04/06 15:05:58;;;;;;;;;1.25;1.00;;;;;;;;5060191;28;8877;-81
2022/04/06 15:08:27;;;;;;;;;1.00;1.00;;;;;;;;5062536;28;8870;-80